sensor_id;sensor_type;location;lat;lon;timestamp;pressure;altitude;pressure_sealevel;temperature;humidity
68758;BME280;55747;51.998;4.466;2022-09-21T00:01:44;56349.66;;;-144.48;79.24
68758;BME280;55747;51.998;4.466;2022-09-21T00:04:09;56382.75;;;-144.48;78.98
68758;BME280;55747;51.998;4.466;2022-09-21T00:06:35;56384.81;;;-144.48;79.14
68758;BME280;55747;51.998;4.466;2022-09-21T00:09:02;56399.28;;;-144.48;79.10
68758;BME280;55747;51.998;4.466;2022-09-21T00:11:33;56372.41;;;-144.48;79.00
68758;BME280;55747;51.998;4.466;2022-09-21T00:14:06;56403.41;;;-144.48;79.20
68758;BME280;55747;51.998;4.466;2022-09-21T00:16:33;56382.75;;;-144.48;79.38
68758;BME280;55747;51.998;4.466;2022-09-21T00:18:59;56422.03;;;-144.48;79.70
68758;BME280;55747;51.998;4.466;2022-09-21T00:21:24;56403.41;;;-144.48;79.85
68758;BME280;55747;51.998;4.466;2022-09-21T00:23:50;56432.38;;;-144.48;80.23
68758;BME280;55747;51.998;4.466;2022-09-21T00:26:18;56386.88;;;-144.48;80.24
68758;BME280;55747;51.998;4.466;2022-09-21T00:28:44;56360.00;;;-144.48;80.70
68758;BME280;55747;51.998;4.466;2022-09-21T00:31:13;56368.28;;;-144.48;80.70
68758;BME280;55747;51.998;4.466;2022-09-21T00:33:40;56382.75;;;-144.48;80.65
68758;BME280;55747;51.998;4.466;2022-09-21T00:36:12;56349.66;;;-144.48;80.82
68758;BME280;55747;51.998;4.466;2022-09-21T00:38:38;56401.34;;;-144.48;80.81
68758;BME280;55747;51.998;4.466;2022-09-21T00:41:05;56407.56;;;-144.48;80.67
68758;BME280;55747;51.998;4.466;2022-09-21T00:43:35;56415.81;;;-144.48;80.77
68758;BME280;55747;51.998;4.466;2022-09-21T00:46:10;56424.09;;;-144.48;80.97
68758;BME280;55747;51.998;4.466;2022-09-21T00:48:38;56434.44;;;-144.48;81.32
68758;BME280;55747;51.998;4.466;2022-09-21T00:51:06;56360.00;;;-144.48;81.63
68758;BME280;55747;51.998;4.466;2022-09-21T00:53:33;56438.56;;;-144.48;81.78
68758;BME280;55747;51.998;4.466;2022-09-21T00:55:59;56372.41;;;-144.48;82.08
68758;BME280;55747;51.998;4.466;2022-09-21T00:58:29;56436.50;;;-144.48;82.39
68758;BME280;55747;51.998;4.466;2022-09-21T01:00:57;56378.63;;;-144.48;82.60
68758;BME280;55747;51.998;4.466;2022-09-21T01:03:24;56399.28;;;-144.48;82.44
68758;BME280;55747;51.998;4.466;2022-09-21T01:05:49;56395.16;;;-144.48;82.51
68758;BME280;55747;51.998;4.466;2022-09-21T01:08:15;56432.38;;;-144.48;82.68
68758;BME280;55747;51.998;4.466;2022-09-21T01:16:25;56397.22;;;-144.48;83.36
68758;BME280;55747;51.998;4.466;2022-09-21T01:24:34;56395.16;;;-144.48;84.80
68758;BME280;55747;51.998;4.466;2022-09-21T01:27:07;56422.03;;;-144.48;85.49
68758;BME280;55747;51.998;4.466;2022-09-21T01:30:04;56380.69;;;-144.48;86.11
68758;BME280;55747;51.998;4.466;2022-09-21T01:35:12;56419.97;;;-144.48;86.59
68758;BME280;55747;51.998;4.466;2022-09-21T01:37:54;56440.63;;;-144.48;86.59
68758;BME280;55747;51.998;4.466;2022-09-21T01:40:47;56384.81;;;-144.48;86.62
68758;BME280;55747;51.998;4.466;2022-09-21T01:43:22;56455.09;;;-144.48;86.81
68758;BME280;55747;51.998;4.466;2022-09-21T01:45:51;56370.34;;;-144.48;87.02
68758;BME280;55747;51.998;4.466;2022-09-21T01:48:19;56415.81;;;-144.48;86.97
68758;BME280;55747;51.998;4.466;2022-09-21T01:50:50;56405.50;;;-144.48;87.04
68758;BME280;55747;51.998;4.466;2022-09-21T01:55:55;56415.81;;;-144.48;87.08
68758;BME280;55747;51.998;4.466;2022-09-21T01:58:42;56411.69;;;-144.48;87.32
68758;BME280;55747;51.998;4.466;2022-09-21T02:01:13;56388.94;;;-144.48;87.81
68758;BME280;55747;51.998;4.466;2022-09-21T02:03:51;56391.00;;;-144.48;88.02
68758;BME280;55747;51.998;4.466;2022-09-21T02:06:18;56448.91;;;-144.48;88.37
68758;BME280;55747;51.998;4.466;2022-09-21T02:08:45;56440.63;;;-144.48;88.58
68758;BME280;55747;51.998;4.466;2022-09-21T02:11:11;56432.38;;;-144.48;88.93
68758;BME280;55747;51.998;4.466;2022-09-21T02:13:39;56428.22;;;-144.48;89.39
68758;BME280;55747;51.998;4.466;2022-09-21T02:16:26;56426.16;;;-144.48;89.52
68758;BME280;55747;51.998;4.466;2022-09-21T02:21:32;56403.41;;;-144.48;89.90
68758;BME280;55747;51.998;4.466;2022-09-21T02:24:13;56430.28;;;-144.48;89.85
68758;BME280;55747;51.998;4.466;2022-09-21T02:27:05;56397.22;;;-144.48;89.99
68758;BME280;55747;51.998;4.466;2022-09-21T02:29:36;56434.44;;;-144.48;90.16
68758;BME280;55747;51.998;4.466;2022-09-21T02:32:11;56430.28;;;-144.48;90.17
68758;BME280;55747;51.998;4.466;2022-09-21T02:34:58;56428.22;;;-144.48;90.18
68758;BME280;55747;51.998;4.466;2022-09-21T02:40:21;56417.91;;;-144.48;90.25
68758;BME280;55747;51.998;4.466;2022-09-21T02:42:53;56403.41;;;-144.48;90.40
68758;BME280;55747;51.998;4.466;2022-09-21T02:45:24;56424.09;;;-144.48;90.28
68758;BME280;55747;51.998;4.466;2022-09-21T02:50:28;56450.97;;;-144.48;90.18
68758;BME280;55747;51.998;4.466;2022-09-21T02:52:59;56428.22;;;-144.48;90.08
68758;BME280;55747;51.998;4.466;2022-09-21T02:55:26;56424.09;;;-144.48;89.90
68758;BME280;55747;51.998;4.466;2022-09-21T02:57:52;56419.97;;;-144.48;89.91
68758;BME280;55747;51.998;4.466;2022-09-21T03:00:20;56448.91;;;-144.48;89.87
68758;BME280;55747;51.998;4.466;2022-09-21T03:02:45;56424.09;;;-144.48;90.22
68758;BME280;55747;51.998;4.466;2022-09-21T03:05:12;56432.38;;;-144.48;90.33
68758;BME280;55747;51.998;4.466;2022-09-21T03:07:38;56463.38;;;-144.48;90.60
68758;BME280;55747;51.998;4.466;2022-09-21T03:10:05;56422.03;;;-144.48;90.43
68758;BME280;55747;51.998;4.466;2022-09-21T03:12:32;56426.16;;;-144.48;90.54
68758;BME280;55747;51.998;4.466;2022-09-21T03:14:57;56417.91;;;-144.48;90.54
68758;BME280;55747;51.998;4.466;2022-09-21T03:17:23;56419.97;;;-144.48;90.63
68758;BME280;55747;51.998;4.466;2022-09-21T03:19:49;56448.91;;;-144.48;90.70
68758;BME280;55747;51.998;4.466;2022-09-21T03:22:14;56434.44;;;-144.48;90.73
68758;BME280;55747;51.998;4.466;2022-09-21T03:24:42;56463.38;;;-144.48;90.78
68758;BME280;55747;51.998;4.466;2022-09-21T03:27:14;56438.56;;;-144.48;90.94
68758;BME280;55747;51.998;4.466;2022-09-21T03:29:39;56455.09;;;-144.48;91.23
68758;BME280;55747;51.998;4.466;2022-09-21T03:32:05;56463.38;;;-144.48;91.33
68758;BME280;55747;51.998;4.466;2022-09-21T03:34:31;56428.22;;;-144.48;91.36
68758;BME280;55747;51.998;4.466;2022-09-21T03:37:02;56436.50;;;-144.48;91.31
68758;BME280;55747;51.998;4.466;2022-09-21T03:39:27;56438.56;;;-144.48;91.20
68758;BME280;55747;51.998;4.466;2022-09-21T03:41:53;56428.22;;;-144.48;91.31
68758;BME280;55747;51.998;4.466;2022-09-21T03:44:22;56457.19;;;-144.48;91.42
68758;BME280;55747;51.998;4.466;2022-09-21T03:46:48;56457.19;;;-144.48;91.60
68758;BME280;55747;51.998;4.466;2022-09-21T03:49:15;56463.38;;;-144.48;91.75
68758;BME280;55747;51.998;4.466;2022-09-21T03:51:40;56461.31;;;-144.48;91.96
68758;BME280;55747;51.998;4.466;2022-09-21T03:54:06;56463.38;;;-144.48;92.12
68758;BME280;55747;51.998;4.466;2022-09-21T03:56:31;56438.56;;;-144.48;92.28
68758;BME280;55747;51.998;4.466;2022-09-21T03:58:56;56461.31;;;-144.48;92.29
68758;BME280;55747;51.998;4.466;2022-09-21T04:01:22;56430.28;;;-144.48;92.22
68758;BME280;55747;51.998;4.466;2022-09-21T04:03:47;56432.38;;;-144.48;92.04
68758;BME280;55747;51.998;4.466;2022-09-21T04:06:13;56444.78;;;-144.48;92.13
68758;BME280;55747;51.998;4.466;2022-09-21T04:08:38;56442.69;;;-144.48;92.02
68758;BME280;55747;51.998;4.466;2022-09-21T04:11:16;56417.91;;;-144.48;91.95
68758;BME280;55747;51.998;4.466;2022-09-21T04:13:41;56465.44;;;-144.48;91.88
68758;BME280;55747;51.998;4.466;2022-09-21T04:16:08;56444.78;;;-144.48;91.98
68758;BME280;55747;51.998;4.466;2022-09-21T04:18:34;56453.03;;;-144.48;92.18
68758;BME280;55747;51.998;4.466;2022-09-21T04:20:59;56459.25;;;-144.48;92.32
68758;BME280;55747;51.998;4.466;2022-09-21T04:23:24;56419.97;;;-144.48;92.42
68758;BME280;55747;51.998;4.466;2022-09-21T04:25:50;56434.44;;;-144.48;92.60
68758;BME280;55747;51.998;4.466;2022-09-21T04:28:18;56473.72;;;-144.48;92.82
68758;BME280;55747;51.998;4.466;2022-09-21T04:30:43;56434.44;;;-144.48;92.92
68758;BME280;55747;51.998;4.466;2022-09-21T04:33:09;56436.50;;;-144.48;93.11
68758;BME280;55747;51.998;4.466;2022-09-21T04:35:34;56426.16;;;-144.48;93.07
68758;BME280;55747;51.998;4.466;2022-09-21T04:37:59;56448.91;;;-144.48;93.20
68758;BME280;55747;51.998;4.466;2022-09-21T04:40:25;56430.28;;;-144.48;93.28
68758;BME280;55747;51.998;4.466;2022-09-21T04:42:51;56436.50;;;-144.48;93.08
68758;BME280;55747;51.998;4.466;2022-09-21T04:45:20;56477.84;;;-144.48;93.17
68758;BME280;55747;51.998;4.466;2022-09-21T04:47:46;56444.78;;;-144.48;93.17
68758;BME280;55747;51.998;4.466;2022-09-21T04:50:11;56419.97;;;-144.48;93.11
68758;BME280;55747;51.998;4.466;2022-09-21T04:52:37;56426.16;;;-144.48;92.96
68758;BME280;55747;51.998;4.466;2022-09-21T04:55:03;56426.16;;;-144.48;92.97
68758;BME280;55747;51.998;4.466;2022-09-21T04:57:28;56440.63;;;-144.48;92.91
68758;BME280;55747;51.998;4.466;2022-09-21T04:59:53;56444.78;;;-144.48;92.84
68758;BME280;55747;51.998;4.466;2022-09-21T05:02:19;56453.03;;;-144.48;92.98
68758;BME280;55747;51.998;4.466;2022-09-21T05:04:45;56440.63;;;-144.48;93.00
68758;BME280;55747;51.998;4.466;2022-09-21T05:07:10;56475.78;;;-144.48;93.00
68758;BME280;55747;51.998;4.466;2022-09-21T05:09:36;56455.09;;;-144.48;93.11
68758;BME280;55747;51.998;4.466;2022-09-21T05:12:20;56453.03;;;-144.48;93.07
68758;BME280;55747;51.998;4.466;2022-09-21T05:14:45;56461.31;;;-144.48;92.98
68758;BME280;55747;51.998;4.466;2022-09-21T05:17:11;56440.63;;;-144.48;92.92
68758;BME280;55747;51.998;4.466;2022-09-21T05:19:37;56450.97;;;-144.48;93.16
68758;BME280;55747;51.998;4.466;2022-09-21T05:22:02;56479.91;;;-144.48;92.91
68758;BME280;55747;51.998;4.466;2022-09-21T05:24:27;56510.94;;;-144.48;92.87
68758;BME280;55747;51.998;4.466;2022-09-21T05:26:53;56438.56;;;-144.48;92.97
68758;BME280;55747;51.998;4.466;2022-09-21T05:29:18;56438.56;;;-144.48;92.91
68758;BME280;55747;51.998;4.466;2022-09-21T05:31:54;56453.03;;;-144.48;92.97
68758;BME280;55747;51.998;4.466;2022-09-21T05:40:52;56428.22;;;-144.48;93.17
68758;BME280;55747;51.998;4.466;2022-09-21T05:43:18;56465.44;;;-144.48;93.18
68758;BME280;55747;51.998;4.466;2022-09-21T05:45:52;56469.56;;;-144.48;93.46
68758;BME280;55747;51.998;4.466;2022-09-21T05:48:29;56457.19;;;-144.48;93.27
68758;BME280;55747;51.998;4.466;2022-09-21T05:51:41;56467.50;;;-144.48;93.35
68758;BME280;55747;51.998;4.466;2022-09-21T05:54:16;56471.66;;;-144.48;93.14
68758;BME280;55747;51.998;4.466;2022-09-21T05:57:05;56430.28;;;-144.48;92.51
68758;BME280;55747;51.998;4.466;2022-09-21T06:00:15;56422.03;;;-144.48;89.70
68758;BME280;55747;51.998;4.466;2022-09-21T06:05:14;56442.69;;;-144.48;78.82
68758;BME280;55747;51.998;4.466;2022-09-21T06:07:39;56442.69;;;-144.48;79.57
68758;BME280;55747;51.998;4.466;2022-09-21T06:10:06;56434.44;;;-144.48;80.57
68758;BME280;55747;51.998;4.466;2022-09-21T06:12:32;56419.97;;;-144.48;81.34
68758;BME280;55747;51.998;4.466;2022-09-21T06:14:57;56457.19;;;-144.48;81.79
68758;BME280;55747;51.998;4.466;2022-09-21T06:17:22;56438.56;;;-144.48;82.17
68758;BME280;55747;51.998;4.466;2022-09-21T06:19:51;56442.69;;;-144.48;81.80
68758;BME280;55747;51.998;4.466;2022-09-21T06:22:17;56434.44;;;-144.48;81.44
68758;BME280;55747;51.998;4.466;2022-09-21T06:24:42;56440.63;;;-144.48;80.85
68758;BME280;55747;51.998;4.466;2022-09-21T06:27:07;56508.84;;;-144.48;80.17
68758;BME280;55747;51.998;4.466;2022-09-21T06:29:33;56453.03;;;-144.48;79.66
68758;BME280;55747;51.998;4.466;2022-09-21T06:31:58;56469.56;;;-144.48;78.70
68758;BME280;55747;51.998;4.466;2022-09-21T06:34:24;56459.25;;;-144.48;77.52
68758;BME280;55747;51.998;4.466;2022-09-21T06:36:49;56436.50;;;-144.48;76.98
68758;BME280;55747;51.998;4.466;2022-09-21T06:39:14;56444.78;;;-144.48;74.27
68758;BME280;55747;51.998;4.466;2022-09-21T06:41:40;56440.63;;;-144.48;73.71
68758;BME280;55747;51.998;4.466;2022-09-21T06:44:05;56457.19;;;-144.48;74.30
68758;BME280;55747;51.998;4.466;2022-09-21T06:46:30;56438.56;;;-144.48;73.73
68758;BME280;55747;51.998;4.466;2022-09-21T06:48:56;56436.50;;;-144.48;73.62
68758;BME280;55747;51.998;4.466;2022-09-21T06:51:21;56432.38;;;-144.48;73.84
68758;BME280;55747;51.998;4.466;2022-09-21T06:53:48;56415.81;;;-144.48;73.74
68758;BME280;55747;51.998;4.466;2022-09-21T06:56:13;56426.16;;;-144.48;71.65
68758;BME280;55747;51.998;4.466;2022-09-21T06:58:39;56413.75;;;-144.48;69.81
68758;BME280;55747;51.998;4.466;2022-09-21T07:01:07;56411.69;;;-144.48;68.98
68758;BME280;55747;51.998;4.466;2022-09-21T07:03:33;56395.16;;;-144.48;66.75
68758;BME280;55747;51.998;4.466;2022-09-21T07:05:59;56426.16;;;-144.48;65.00
68758;BME280;55747;51.998;4.466;2022-09-21T07:08:24;56424.09;;;-144.48;61.27
68758;BME280;55747;51.998;4.466;2022-09-21T07:10:50;56450.97;;;-144.48;60.67
68758;BME280;55747;51.998;4.466;2022-09-21T07:13:15;56399.28;;;-144.48;56.04
68758;BME280;55747;51.998;4.466;2022-09-21T07:15:42;56434.44;;;-144.48;53.59
68758;BME280;55747;51.998;4.466;2022-09-21T07:18:11;56378.63;;;-144.48;53.64
68758;BME280;55747;51.998;4.466;2022-09-21T07:20:39;56401.34;;;-144.48;51.07
68758;BME280;55747;51.998;4.466;2022-09-21T07:23:23;56407.56;;;-144.48;51.20
68758;BME280;55747;51.998;4.466;2022-09-21T07:25:51;56374.47;;;-144.48;47.24
68758;BME280;55747;51.998;4.466;2022-09-21T07:28:17;56357.94;;;-144.48;45.88
68758;BME280;55747;51.998;4.466;2022-09-21T07:30:43;56335.19;;;-144.48;47.01
68758;BME280;55747;51.998;4.466;2022-09-21T07:33:08;56393.09;;;-144.48;46.64
68758;BME280;55747;51.998;4.466;2022-09-21T07:35:34;56355.88;;;-144.48;45.63
68758;BME280;55747;51.998;4.466;2022-09-21T07:38:03;56351.75;;;-144.48;44.95
68758;BME280;55747;51.998;4.466;2022-09-21T07:40:29;56320.72;;;-144.48;42.93
68758;BME280;55747;51.998;4.466;2022-09-21T07:42:59;56347.59;;;-144.48;40.77
68758;BME280;55747;51.998;4.466;2022-09-21T07:45:26;56360.00;;;-144.48;41.88
68758;BME280;55747;51.998;4.466;2022-09-21T07:47:51;56374.47;;;-144.48;42.69
68758;BME280;55747;51.998;4.466;2022-09-21T07:50:20;56393.09;;;-144.48;44.01
68758;BME280;55747;51.998;4.466;2022-09-21T07:52:46;56364.13;;;-144.48;44.21
68758;BME280;55747;51.998;4.466;2022-09-21T07:55:12;56362.06;;;-144.48;42.52
68758;BME280;55747;51.998;4.466;2022-09-21T07:57:37;56355.88;;;-144.48;42.09
68758;BME280;55747;51.998;4.466;2022-09-21T08:00:21;56337.25;;;-144.48;41.20
68758;BME280;55747;51.998;4.466;2022-09-21T08:02:47;56360.00;;;-144.48;42.86
68758;BME280;55747;51.998;4.466;2022-09-21T08:05:12;56364.13;;;-144.48;41.43
68758;BME280;55747;51.998;4.466;2022-09-21T08:07:37;56331.06;;;-144.48;38.44
68758;BME280;55747;51.998;4.466;2022-09-21T08:10:03;56366.22;;;-144.48;41.69
68758;BME280;55747;51.998;4.466;2022-09-21T08:12:28;56374.47;;;-144.48;42.99
68758;BME280;55747;51.998;4.466;2022-09-21T08:14:54;56341.41;;;-144.48;42.05
68758;BME280;55747;51.998;4.466;2022-09-21T08:17:19;56347.59;;;-144.48;43.11
68758;BME280;55747;51.998;4.466;2022-09-21T08:19:44;56329.00;;;-144.48;38.66
68758;BME280;55747;51.998;4.466;2022-09-21T08:22:10;56318.66;;;-144.48;36.13
68758;BME280;55747;51.998;4.466;2022-09-21T08:24:36;56306.25;;;-144.48;36.25
68758;BME280;55747;51.998;4.466;2022-09-21T08:27:05;56295.91;;;-144.48;35.56
68758;BME280;55747;51.998;4.466;2022-09-21T08:29:32;56281.44;;;-144.48;35.74
68758;BME280;55747;51.998;4.466;2022-09-21T08:31:57;56302.13;;;-144.48;39.54
68758;BME280;55747;51.998;4.466;2022-09-21T08:34:23;56314.53;;;-144.48;36.52
68758;BME280;55747;51.998;4.466;2022-09-21T08:36:48;56351.75;;;-144.48;37.69
68758;BME280;55747;51.998;4.466;2022-09-21T08:39:13;56306.25;;;-144.48;37.49
68758;BME280;55747;51.998;4.466;2022-09-21T08:44:20;56312.47;;;-144.48;34.56
68758;BME280;55747;51.998;4.466;2022-09-21T08:49:28;56337.25;;;-144.48;37.85
68758;BME280;55747;51.998;4.466;2022-09-21T08:51:57;56277.31;;;-144.48;34.90
68758;BME280;55747;51.998;4.466;2022-09-21T08:54:45;56285.59;;;-144.48;34.13
68758;BME280;55747;51.998;4.466;2022-09-21T08:57:13;56277.31;;;-144.48;34.72
68758;BME280;55747;51.998;4.466;2022-09-21T08:59:43;56293.84;;;-144.48;36.40
68758;BME280;55747;51.998;4.466;2022-09-21T09:04:49;56269.03;;;-144.48;34.16
68758;BME280;55747;51.998;4.466;2022-09-21T09:10:31;56283.50;;;-144.48;35.56
68758;BME280;55747;51.998;4.466;2022-09-21T09:18:49;56231.84;;;-144.48;31.80
68758;BME280;55747;51.998;4.466;2022-09-21T09:21:26;56314.53;;;-144.48;35.21
68758;BME280;55747;51.998;4.466;2022-09-21T09:23:58;56298.00;;;-144.48;33.27
68758;BME280;55747;51.998;4.466;2022-09-21T09:26:40;56260.78;;;-144.48;31.38
68758;BME280;55747;51.998;4.466;2022-09-21T09:29:43;56248.38;;;-144.48;29.73
68758;BME280;55747;51.998;4.466;2022-09-21T09:32:13;56275.25;;;-144.48;31.27
68758;BME280;55747;51.998;4.466;2022-09-21T09:34:42;56254.56;;;-144.48;31.40
68758;BME280;55747;51.998;4.466;2022-09-21T09:37:11;56227.69;;;-144.48;30.90
68758;BME280;55747;51.998;4.466;2022-09-21T09:39:38;56221.50;;;-144.48;30.84
68758;BME280;55747;51.998;4.466;2022-09-21T09:44:59;56225.63;;;-144.48;31.97
68758;BME280;55747;51.998;4.466;2022-09-21T09:50:21;56217.38;;;-144.48;30.82
68758;BME280;55747;51.998;4.466;2022-09-21T09:52:50;56246.31;;;-144.48;30.50
68758;BME280;55747;51.998;4.466;2022-09-21T09:55:26;56215.28;;;-144.48;31.57
68758;BME280;55747;51.998;4.466;2022-09-21T09:57:58;56231.84;;;-144.48;32.13
68758;BME280;55747;51.998;4.466;2022-09-21T10:00:24;56260.78;;;-144.48;31.93
68758;BME280;55747;51.998;4.466;2022-09-21T10:02:54;56240.09;;;-144.48;32.15
68758;BME280;55747;51.998;4.466;2022-09-21T10:05:35;56233.91;;;-144.48;30.99
68758;BME280;55747;51.998;4.466;2022-09-21T10:08:03;56217.38;;;-144.48;30.66
68758;BME280;55747;51.998;4.466;2022-09-21T10:13:01;56207.03;;;-144.48;28.40
68758;BME280;55747;51.998;4.466;2022-09-21T10:15:27;56200.81;;;-144.48;28.77
68758;BME280;55747;51.998;4.466;2022-09-21T10:18:23;56215.28;;;-144.48;29.63
68758;BME280;55747;51.998;4.466;2022-09-21T10:20:59;56242.16;;;-144.48;31.10
68758;BME280;55747;51.998;4.466;2022-09-21T10:23:25;56240.09;;;-144.48;31.29
68758;BME280;55747;51.998;4.466;2022-09-21T10:25:56;56235.97;;;-144.48;30.21
68758;BME280;55747;51.998;4.466;2022-09-21T10:28:22;56231.84;;;-144.48;28.95
68758;BME280;55747;51.998;4.466;2022-09-21T10:30:48;56188.41;;;-144.48;28.85
68758;BME280;55747;51.998;4.466;2022-09-21T10:33:19;56204.97;;;-144.48;29.61
68758;BME280;55747;51.998;4.466;2022-09-21T10:35:50;56186.34;;;-144.48;28.97
68758;BME280;55747;51.998;4.466;2022-09-21T10:38:16;56223.56;;;-144.48;27.74
68758;BME280;55747;51.998;4.466;2022-09-21T10:40:43;56188.41;;;-144.48;26.92
68758;BME280;55747;51.998;4.466;2022-09-21T10:43:34;56155.34;;;-144.48;27.51
68758;BME280;55747;51.998;4.466;2022-09-21T10:46:04;56213.22;;;-144.48;28.15
68758;BME280;55747;51.998;4.466;2022-09-21T10:48:29;56260.78;;;-144.48;30.29
68758;BME280;55747;51.998;4.466;2022-09-21T10:50:55;56256.63;;;-144.48;32.02
68758;BME280;55747;51.998;4.466;2022-09-21T10:53:32;56235.97;;;-144.48;30.20
68758;BME280;55747;51.998;4.466;2022-09-21T10:58:26;56215.28;;;-144.48;28.52
68758;BME280;55747;51.998;4.466;2022-09-21T11:00:53;56207.03;;;-144.48;26.73
68758;BME280;55747;51.998;4.466;2022-09-21T11:05:55;56233.91;;;-144.48;28.32
68758;BME280;55747;51.998;4.466;2022-09-21T11:08:28;56254.56;;;-144.48;27.40
68758;BME280;55747;51.998;4.466;2022-09-21T11:13:40;56186.34;;;-144.48;26.96
68758;BME280;55747;51.998;4.466;2022-09-21T11:21:46;56260.78;;;-144.48;33.22
68758;BME280;55747;51.998;4.466;2022-09-21T11:24:53;56254.56;;;-144.48;34.54
68758;BME280;55747;51.998;4.466;2022-09-21T11:27:24;56227.69;;;-144.48;33.49
68758;BME280;55747;51.998;4.466;2022-09-21T11:30:13;56231.84;;;-144.48;34.02
68758;BME280;55747;51.998;4.466;2022-09-21T11:46:59;56281.44;;;-144.48;32.81
68758;BME280;55747;51.998;4.466;2022-09-21T11:55:14;56219.44;;;-144.48;28.89
68758;BME280;55747;51.998;4.466;2022-09-21T11:57:53;56242.16;;;-144.48;30.28
68758;BME280;55747;51.998;4.466;2022-09-21T12:00:23;56219.44;;;-144.48;29.24
68758;BME280;55747;51.998;4.466;2022-09-21T12:06:16;56235.97;;;-144.48;32.50
68758;BME280;55747;51.998;4.466;2022-09-21T12:09:01;56242.16;;;-144.48;33.87
68758;BME280;55747;51.998;4.466;2022-09-21T12:11:42;56254.56;;;-144.48;34.52
68758;BME280;55747;51.998;4.466;2022-09-21T12:14:14;56240.09;;;-144.48;34.47
68758;BME280;55747;51.998;4.466;2022-09-21T12:19:35;56240.09;;;-144.48;33.83
68758;BME280;55747;51.998;4.466;2022-09-21T12:22:11;56225.63;;;-144.48;32.77
68758;BME280;55747;51.998;4.466;2022-09-21T12:24:45;56252.50;;;-144.48;32.58
68758;BME280;55747;51.998;4.466;2022-09-21T12:27:24;56229.75;;;-144.48;32.84
68758;BME280;55747;51.998;4.466;2022-09-21T12:29:54;56248.38;;;-144.48;32.11
68758;BME280;55747;51.998;4.466;2022-09-21T12:32:59;56231.84;;;-144.48;33.61
68758;BME280;55747;51.998;4.466;2022-09-21T12:35:36;56248.38;;;-144.48;33.59
68758;BME280;55747;51.998;4.466;2022-09-21T12:38:26;56225.63;;;-144.48;32.84
68758;BME280;55747;51.998;4.466;2022-09-21T12:40:58;56238.03;;;-144.48;33.29
68758;BME280;55747;51.998;4.466;2022-09-21T12:43:47;56258.72;;;-144.48;35.16
68758;BME280;55747;51.998;4.466;2022-09-21T12:48:39;56277.31;;;-144.48;35.79
68758;BME280;55747;51.998;4.466;2022-09-21T12:51:18;56235.97;;;-144.48;35.59
68758;BME280;55747;51.998;4.466;2022-09-21T12:53:48;56262.84;;;-144.48;36.01
68758;BME280;55747;51.998;4.466;2022-09-21T12:56:39;56264.91;;;-144.48;37.00
68758;BME280;55747;51.998;4.466;2022-09-21T13:04:52;56202.88;;;-144.48;31.68
68758;BME280;55747;51.998;4.466;2022-09-21T13:07:34;56211.16;;;-144.48;31.58
68758;BME280;55747;51.998;4.466;2022-09-21T13:12:58;56235.97;;;-144.48;34.61
68758;BME280;55747;51.998;4.466;2022-09-21T13:15:29;56262.84;;;-144.48;35.96
68758;BME280;55747;51.998;4.466;2022-09-21T13:18:01;56246.31;;;-144.48;35.72
68758;BME280;55747;51.998;4.466;2022-09-21T13:20:33;56271.13;;;-144.48;37.69
68758;BME280;55747;51.998;4.466;2022-09-21T13:22:59;56285.59;;;-144.48;38.23
68758;BME280;55747;51.998;4.466;2022-09-21T13:25:28;56279.38;;;-144.48;38.72
68758;BME280;55747;51.998;4.466;2022-09-21T13:32:59;56266.97;;;-144.48;38.83
68758;BME280;55747;51.998;4.466;2022-09-21T13:36:00;56227.69;;;-144.48;38.78
68758;BME280;55747;51.998;4.466;2022-09-21T13:38:41;56287.66;;;-144.48;38.04
68758;BME280;55747;51.998;4.466;2022-09-21T13:43:44;56275.25;;;-144.48;37.49
68758;BME280;55747;51.998;4.466;2022-09-21T13:48:56;56291.78;;;-144.48;39.00
68758;BME280;55747;51.998;4.466;2022-09-21T13:51:22;56254.56;;;-144.48;37.03
68758;BME280;55747;51.998;4.466;2022-09-21T13:53:53;56233.91;;;-144.48;33.07
68758;BME280;55747;51.998;4.466;2022-09-21T13:56:23;56221.50;;;-144.48;31.98
68758;BME280;55747;51.998;4.466;2022-09-21T13:58:52;56238.03;;;-144.48;31.21
68758;BME280;55747;51.998;4.466;2022-09-21T14:01:34;56238.03;;;-144.48;31.76
68758;BME280;55747;51.998;4.466;2022-09-21T14:04:27;56262.84;;;-144.48;33.57
68758;BME280;55747;51.998;4.466;2022-09-21T14:06:56;56229.75;;;-144.48;32.32
68758;BME280;55747;51.998;4.466;2022-09-21T14:09:28;56192.56;;;-144.48;32.84
68758;BME280;55747;51.998;4.466;2022-09-21T14:11:59;56217.38;;;-144.48;31.50
68758;BME280;55747;51.998;4.466;2022-09-21T14:14:27;56225.63;;;-144.48;30.67
68758;BME280;55747;51.998;4.466;2022-09-21T14:16:59;56184.28;;;-144.48;30.13
68758;BME280;55747;51.998;4.466;2022-09-21T14:24:45;56223.56;;;-144.48;30.27
68758;BME280;55747;51.998;4.466;2022-09-21T14:29:54;56221.50;;;-144.48;31.78
68758;BME280;55747;51.998;4.466;2022-09-21T14:32:25;56215.28;;;-144.48;33.58
68758;BME280;55747;51.998;4.466;2022-09-21T14:35:19;56240.09;;;-144.48;33.88
68758;BME280;55747;51.998;4.466;2022-09-21T14:37:49;56250.44;;;-144.48;34.33
68758;BME280;55747;51.998;4.466;2022-09-21T14:40:21;56246.31;;;-144.48;34.81
68758;BME280;55747;51.998;4.466;2022-09-21T14:42:52;56238.03;;;-144.48;35.47
68758;BME280;55747;51.998;4.466;2022-09-21T14:45:24;56266.97;;;-144.48;35.95
68758;BME280;55747;51.998;4.466;2022-09-21T14:50:31;56269.03;;;-144.48;35.73
68758;BME280;55747;51.998;4.466;2022-09-21T14:58:32;56244.25;;;-144.48;37.03
68758;BME280;55747;51.998;4.466;2022-09-21T15:01:24;56256.63;;;-144.48;36.72
68758;BME280;55747;51.998;4.466;2022-09-21T15:07:05;56260.78;;;-144.48;38.41
68758;BME280;55747;51.998;4.466;2022-09-21T15:10:18;56254.56;;;-144.48;38.46
68758;BME280;55747;51.998;4.466;2022-09-21T15:15:55;56235.97;;;-144.48;38.75
68758;BME280;55747;51.998;4.466;2022-09-21T15:18:22;56262.84;;;-144.48;39.32
68758;BME280;55747;51.998;4.466;2022-09-21T15:21:03;56240.09;;;-144.48;39.71